Pagrindinis puslapis
METAR-TAF:

METAR-TAF

Oro uostai :

Ann Arbor, Mičiganas, Jungtinės Amerikos Valstijos

platuma: 42-13-26N, ilguma: 083-44-24W, Aukštis: 255 m

Dabartinis oras

Ataskaita buvo paskelbta 30 minutes, ne 21:53 UTC
Ramus vėjas
Temperatūra 19°C
Drėgmė 56%
Slėgis 1013 hPa
Matomumas: 16.1 km
Giedras dangus

METAR: KARB 202153Z 00000KT 10SM CLR 19/10 A2990 RMK AO2 SLP124 T01890100

Laikas: 18:23 (22:23 UTC)


TAF: trūkstamas

Orai ataskaitas ir orų prognozės (METAR, TAF).

turimą stotys yra geltonos ir raudonos taškus žemėlapyje.

Perkelti pele per norėdami pamatyti stoties vardą.

Tada spustelėkite, norėdami matyti oro stebėjimo ir prognozės.

Norėdami pakeisti žemėlapį: spustelėkite ant žalios mygtukų su juodo kryžiaus žemyn,; žalią mygtuką su brūkšneliu, jei norite nutolinti; arba žalių rodyklių gretimoms žemėlapius.


METAR-TAF: